createdAt,value
2019-03-05T00:00:23.896Z,5.75
2019-03-05T00:05:23.941Z,5.75
2019-03-05T00:10:23.899Z,5.75
2019-03-05T00:15:23.896Z,5.69
2019-03-05T00:20:23.952Z,5.69
2019-03-05T00:25:23.950Z,5.56
2019-03-05T00:30:23.941Z,5.63
2019-03-05T00:35:23.948Z,5.63
2019-03-05T00:40:23.940Z,5.63
2019-03-05T00:45:23.945Z,5.75
2019-03-05T00:50:23.928Z,5.75
2019-03-05T00:55:23.954Z,5.69
2019-03-05T01:00:23.909Z,5.63
2019-03-05T01:05:23.980Z,5.63
2019-03-05T01:10:23.942Z,5.63
2019-03-05T01:15:23.950Z,5.56
2019-03-05T01:20:23.908Z,5.5
2019-03-05T01:25:23.971Z,5.56
2019-03-05T01:30:23.957Z,5.5
2019-03-05T01:35:23.913Z,5.56
2019-03-05T01:40:23.992Z,5.63
2019-03-05T01:45:23.966Z,5.69
2019-03-05T01:50:23.908Z,5.75
2019-03-05T01:55:23.957Z,5.75
2019-03-05T02:00:23.957Z,5.75
2019-03-05T02:05:23.960Z,5.75
2019-03-05T02:10:23.969Z,5.75
2019-03-05T02:15:23.943Z,5.75
2019-03-05T02:20:23.965Z,5.75
2019-03-05T02:25:23.943Z,5.81
2019-03-05T02:30:23.949Z,5.81
2019-03-05T02:35:23.987Z,5.88
2019-03-05T02:40:23.975Z,5.88
2019-03-05T02:45:23.939Z,6.06
2019-03-05T02:50:23.963Z,6.19
2019-03-05T02:55:23.919Z,6.38
2019-03-05T03:00:24.006Z,6.38
2019-03-05T03:05:24.022Z,6.38
2019-03-05T03:10:23.944Z,6.38
2019-03-05T03:15:24.107Z,6.38
2019-03-05T03:20:23.964Z,6.31
2019-03-05T03:25:23.959Z,6.25
2019-03-05T03:30:23.912Z,6.25
2019-03-05T03:35:23.992Z,6.25
2019-03-05T03:40:23.994Z,6.25
2019-03-05T03:45:23.952Z,6.25
2019-03-05T03:50:24.041Z,6.25
2019-03-05T03:55:23.970Z,6.19
2019-03-05T04:00:23.983Z,6.19
2019-03-05T04:05:23.957Z,6.19
2019-03-05T04:10:23.945Z,6.19
2019-03-05T04:15:23.988Z,6.19
2019-03-05T04:20:23.961Z,6.31
2019-03-05T04:25:23.947Z,6.38
2019-03-05T04:30:23.991Z,6.31
2019-03-05T04:35:23.956Z,6.31
2019-03-05T04:40:23.962Z,6.38
2019-03-05T04:45:23.918Z,6.38
2019-03-05T04:50:23.960Z,6.38
2019-03-05T04:55:23.952Z,6.38
2019-03-05T05:00:23.963Z,6.38
2019-03-05T05:05:23.962Z,6.31
2019-03-05T05:10:23.961Z,6.31
2019-03-05T05:15:23.967Z,6.31
2019-03-05T05:20:23.924Z,6.25
2019-03-05T05:25:23.959Z,6.06
2019-03-05T05:30:24.008Z,6.06
2019-03-05T05:35:23.920Z,6.06
2019-03-05T05:40:23.956Z,6.13
2019-03-05T05:45:23.960Z,6.13
2019-03-05T05:50:23.954Z,6.13
2019-03-05T05:55:24.007Z,6.19
2019-03-05T06:00:24.017Z,6.25
2019-03-05T06:05:23.968Z,6.25
2019-03-05T06:10:23.923Z,6.19
2019-03-05T06:15:23.974Z,6.13
2019-03-05T06:20:24.019Z,6.13
2019-03-05T06:25:23.964Z,6.13
2019-03-05T06:30:24.011Z,6.13
2019-03-05T06:35:24.009Z,6.13
2019-03-05T06:40:23.951Z,6.13
2019-03-05T06:45:23.962Z,6.19
2019-03-05T06:50:23.973Z,6.19
2019-03-05T06:55:23.965Z,6.19
2019-03-05T07:00:23.923Z,6.13
2019-03-05T07:05:23.973Z,6.06
2019-03-05T07:10:23.922Z,6.06
2019-03-05T07:15:23.963Z,6.06
2019-03-05T07:20:24.002Z,6.13
2019-03-05T07:25:23.930Z,6.06
2019-03-05T07:30:23.979Z,6.06
2019-03-05T07:35:23.925Z,6.19
2019-03-05T07:40:23.965Z,6.25
2019-03-05T07:45:23.973Z,7
2019-03-05T07:50:23.993Z,7.19
2019-03-05T07:55:23.968Z,7.25
2019-03-05T08:00:23.976Z,7.56
2019-03-05T08:05:24.009Z,7.44
2019-03-05T08:10:23.963Z,7.25
2019-03-05T08:15:23.938Z,7.25
2019-03-05T08:20:23.991Z,7.19
2019-03-05T08:25:23.970Z,7.13
2019-03-05T08:30:23.993Z,7
2019-03-05T08:35:23.985Z,6.88
2019-03-05T08:40:23.931Z,6.81
2019-03-05T08:45:29.082Z,6.81
2019-03-05T08:50:24.015Z,6.81
2019-03-05T08:55:24.016Z,6.75
2019-03-05T09:00:24.017Z,6.75
2019-03-05T09:05:23.943Z,6.63
2019-03-05T09:10:23.966Z,6.69
2019-03-05T09:15:23.976Z,6.81
2019-03-05T09:20:23.990Z,6.88
2019-03-05T09:25:23.985Z,7.13
2019-03-05T09:30:23.967Z,7.19
2019-03-05T09:35:23.989Z,7.38
2019-03-05T09:40:24.007Z,7.5
2019-03-05T09:45:23.935Z,7.75
2019-03-05T09:50:24.007Z,7.81
2019-03-05T09:55:24.010Z,7.88
2019-03-05T10:00:24.035Z,7.81
2019-03-05T10:05:23.937Z,7.81
2019-03-05T10:10:23.950Z,7.69
2019-03-05T10:15:24.035Z,7.69
2019-03-05T10:20:23.986Z,7.75
2019-03-05T10:25:23.987Z,8.06
2019-03-05T10:30:24.937Z,8.06
2019-03-05T10:35:23.984Z,8.13
2019-03-05T10:40:23.995Z,8.19
2019-03-05T10:45:23.984Z,8.25
2019-03-05T10:50:23.972Z,8.25
2019-03-05T10:55:26.427Z,8.13
2019-03-05T11:00:23.936Z,8.06
2019-03-05T11:05:23.998Z,7.88
2019-03-05T11:10:24.026Z,7.75
2019-03-05T11:15:23.983Z,7.56
2019-03-05T11:20:23.974Z,7.5
2019-03-05T11:25:23.991Z,7.44
2019-03-05T11:30:35.171Z,7.44
2019-03-05T11:35:23.974Z,7.56
2019-03-05T11:40:24.039Z,7.63
2019-03-05T11:45:23.948Z,7.44
2019-03-05T11:50:24.000Z,7.38
2019-03-05T11:55:23.956Z,7.31
2019-03-05T12:00:23.987Z,7.25
2019-03-05T12:05:24.039Z,7.19
2019-03-05T12:10:23.949Z,7.06
2019-03-05T12:15:24.004Z,7
2019-03-05T12:20:23.978Z,6.94
2019-03-05T12:25:23.994Z,7
2019-03-05T12:30:23.980Z,7
2019-03-05T12:35:24.000Z,7
2019-03-05T12:40:24.004Z,7.06
2019-03-05T12:45:23.949Z,7.25
2019-03-05T12:50:24.003Z,7.25
2019-03-05T12:55:24.028Z,7.31
2019-03-05T13:00:23.943Z,7.44
2019-03-05T13:05:24.037Z,7.5
2019-03-05T13:10:23.954Z,7.69
2019-03-05T13:15:24.190Z,7.63
2019-03-05T13:20:26.138Z,7.56
2019-03-05T13:25:27.913Z,7.69
2019-03-05T13:30:25.748Z,7.69
2019-03-05T13:35:25.310Z,7.69
2019-03-05T13:40:24.050Z,7.69
2019-03-05T13:45:23.984Z,7.44
2019-03-05T13:50:24.335Z,7.44
2019-03-05T13:55:26.820Z,7.56
2019-03-05T14:00:23.991Z,7.56
2019-03-05T14:05:24.013Z,7.94
2019-03-05T14:10:26.072Z,8.06
2019-03-05T14:15:23.970Z,8.13
2019-03-05T14:20:31.674Z,8.25
2019-03-05T14:25:24.049Z,8.25
2019-03-05T14:30:24.005Z,8.19
2019-03-05T14:35:24.007Z,8.13
2019-03-05T14:40:24.873Z,8.13
2019-03-05T14:45:24.045Z,8.25
2019-03-05T14:50:24.068Z,8.13
2019-03-05T14:55:24.006Z,8.13
2019-03-05T15:00:24.025Z,8.13
2019-03-05T15:05:24.027Z,7.25
2019-03-05T15:10:24.051Z,7.13
2019-03-05T15:15:24.036Z,7.06
2019-03-05T15:20:24.023Z,7.06
2019-03-05T15:25:23.960Z,7.06
2019-03-05T15:30:24.026Z,7.19
2019-03-05T15:35:24.014Z,7.25
2019-03-05T15:40:24.070Z,7.31
2019-03-05T15:45:24.028Z,7.19
2019-03-05T15:50:23.961Z,7.19
2019-03-05T15:55:23.968Z,7.19
2019-03-05T16:00:24.028Z,7.19
2019-03-05T16:05:23.969Z,7.06
2019-03-05T16:10:24.066Z,7.06
2019-03-05T16:15:23.967Z,6.94
2019-03-05T16:20:25.704Z,6.88
2019-03-05T16:25:24.042Z,6.75
2019-03-05T16:30:24.018Z,6.69
2019-03-05T16:35:24.068Z,6.69
2019-03-05T16:40:24.005Z,6.69
2019-03-05T16:45:23.998Z,6.56
2019-03-05T16:50:23.995Z,6.56
2019-03-05T16:55:24.031Z,6.5
2019-03-05T17:00:24.037Z,6.5
2019-03-05T17:05:24.007Z,6.44
2019-03-05T17:10:24.048Z,6.38
2019-03-05T17:15:23.974Z,6.38
2019-03-05T17:20:24.020Z,6.31
2019-03-05T17:25:24.032Z,6.25
2019-03-05T17:30:24.059Z,6.19
2019-03-05T17:35:24.018Z,6.13
2019-03-05T17:40:23.998Z,6.06
2019-03-05T17:45:24.011Z,6.06
2019-03-05T17:50:23.988Z,6
2019-03-05T17:55:26.979Z,6
2019-03-05T18:00:24.022Z,5.94
2019-03-05T18:05:24.090Z,5.88
2019-03-05T18:10:24.030Z,5.94
2019-03-05T18:15:24.014Z,5.88
2019-03-05T18:20:24.054Z,5.81
2019-03-05T18:25:24.015Z,5.81
2019-03-05T18:30:24.023Z,5.81
2019-03-05T18:35:24.014Z,5.69
2019-03-05T18:40:24.027Z,5.69
2019-03-05T18:45:23.979Z,5.63
2019-03-05T18:50:24.060Z,5.56
2019-03-05T18:55:24.055Z,5.56
2019-03-05T19:00:24.018Z,5.63
2019-03-05T19:05:24.035Z,5.5
2019-03-05T19:10:23.975Z,5.5
2019-03-05T19:15:24.096Z,5.38
2019-03-05T19:20:24.029Z,5.38
2019-03-05T19:25:24.060Z,5.31
2019-03-05T19:30:24.076Z,5.25
2019-03-05T19:35:24.087Z,5.25
2019-03-05T19:40:24.061Z,5.19
2019-03-05T19:45:24.007Z,4.81
2019-03-05T19:50:24.026Z,4.69
2019-03-05T19:55:24.017Z,4.56
2019-03-05T20:00:24.023Z,4.56
2019-03-05T20:05:24.015Z,4.5
2019-03-05T20:10:24.087Z,4.5
2019-03-05T20:15:24.057Z,4.44
2019-03-05T20:20:23.980Z,4.44
2019-03-05T20:25:24.033Z,4.38
2019-03-05T20:30:24.017Z,4.31
2019-03-05T20:35:24.060Z,4.38
2019-03-05T20:40:24.031Z,4.31
2019-03-05T20:45:24.021Z,4.31
2019-03-05T20:50:24.051Z,4.25
2019-03-05T20:55:23.985Z,4.19
2019-03-05T21:00:24.062Z,4.13
2019-03-05T21:05:24.063Z,4
2019-03-05T21:10:24.017Z,3.94
2019-03-05T21:15:24.034Z,3.88
2019-03-05T21:20:24.009Z,3.88
2019-03-05T21:25:24.023Z,3.69
2019-03-05T21:30:24.024Z,3.56
2019-03-05T21:35:23.983Z,3.44
2019-03-05T21:40:24.037Z,3.38
2019-03-05T21:45:24.029Z,3.25
2019-03-05T21:50:24.045Z,3.25
2019-03-05T21:55:24.076Z,3.31
2019-03-05T22:00:24.089Z,3.25
2019-03-05T22:05:23.987Z,3.25
2019-03-05T22:10:24.033Z,3.25
2019-03-05T22:15:24.024Z,3.25
2019-03-05T22:20:24.036Z,3.19
2019-03-05T22:25:24.069Z,3.19
2019-03-05T22:30:24.016Z,3.19
2019-03-05T22:35:24.026Z,3.13
2019-03-05T22:40:23.982Z,3.13
2019-03-05T22:45:24.066Z,3
2019-03-05T22:50:24.076Z,2.94
2019-03-05T22:55:24.036Z,2.94
2019-03-05T23:00:24.029Z,2.88
2019-03-05T23:05:24.056Z,2.88
2019-03-05T23:10:24.029Z,2.81
2019-03-05T23:15:24.028Z,2.81
2019-03-05T23:20:24.035Z,2.75
2019-03-05T23:25:24.057Z,2.69
2019-03-05T23:30:23.992Z,2.63
2019-03-05T23:35:24.066Z,2.63
2019-03-05T23:40:24.037Z,2.56
2019-03-05T23:45:24.041Z,2.5
2019-03-05T23:50:24.075Z,2.5
2019-03-05T23:55:24.027Z,2.5
